createdAt,value
2023-08-29T00:01:45.555Z,96589.44
2023-08-29T00:04:13.112Z,96591.94
2023-08-29T00:06:40.560Z,96577.66
2023-08-29T00:09:09.466Z,96584.81
2023-08-29T00:11:36.962Z,96594.06
2023-08-29T00:14:04.421Z,96597.81
2023-08-29T00:16:31.952Z,96591.38
2023-08-29T00:18:59.461Z,96589.03
2023-08-29T00:21:26.913Z,96597.81
2023-08-29T00:23:54.343Z,96602.06
2023-08-29T00:26:23.366Z,96598.88
2023-08-29T00:28:52.638Z,96599.94
2023-08-29T00:31:20.146Z,96600.59
2023-08-29T00:33:47.589Z,96594.84
2023-08-29T00:36:15.032Z,96596.81
2023-08-29T00:38:42.600Z,96593.00
2023-08-29T00:41:10.096Z,96596.75
2023-08-29T00:43:39.138Z,96602.28
2023-08-29T00:46:07.038Z,96598.09
2023-08-29T00:48:35.625Z,96595.81
2023-08-29T00:51:03.109Z,96600.31
2023-08-29T00:53:30.784Z,96594.00
2023-08-29T00:55:58.483Z,96597.81
2023-08-29T00:58:26.000Z,96593.16
2023-08-29T01:00:56.398Z,96599.50
2023-08-29T01:03:24.196Z,96586.03
2023-08-29T01:05:51.696Z,96593.03
2023-08-29T01:08:19.278Z,96593.41
2023-08-29T01:10:53.471Z,96588.94
2023-08-29T01:13:27.816Z,96595.13
2023-08-29T01:16:01.990Z,96588.13
2023-08-29T01:18:32.658Z,96586.50
2023-08-29T01:21:06.161Z,96583.81
2023-08-29T01:23:40.029Z,96590.94
2023-08-29T01:26:14.725Z,96590.25
2023-08-29T01:28:44.727Z,96595.63
2023-08-29T01:31:12.497Z,96595.63
2023-08-29T01:33:41.359Z,96589.75
2023-08-29T01:36:09.186Z,96598.09
2023-08-29T01:38:36.770Z,96591.66
2023-08-29T01:41:04.755Z,96589.53
2023-08-29T01:43:34.951Z,96590.47
2023-08-29T01:46:02.585Z,96599.38
2023-08-29T01:48:31.756Z,96588.13
2023-08-29T01:50:59.571Z,96588.97
2023-08-29T01:53:27.598Z,96587.06
2023-08-29T01:55:56.552Z,96586.00
2023-08-29T01:58:25.185Z,96592.44
2023-08-29T02:00:54.493Z,96591.88
2023-08-29T02:03:22.833Z,96581.59
2023-08-29T02:05:50.338Z,96579.81
2023-08-29T02:08:18.005Z,96586.38
2023-08-29T02:10:45.483Z,96590.25
2023-08-29T02:13:13.577Z,96584.84
2023-08-29T02:15:41.036Z,96584.63
2023-08-29T02:18:11.466Z,96594.63
2023-08-29T02:20:39.312Z,96583.22
2023-08-29T02:23:11.229Z,96589.50
2023-08-29T02:25:38.690Z,96586.78
2023-08-29T02:28:06.672Z,96595.34
2023-08-29T02:30:36.457Z,96591.06
2023-08-29T02:33:04.738Z,96595.75
2023-08-29T02:35:33.672Z,96590.94
2023-08-29T02:38:01.948Z,96598.00
2023-08-29T02:40:33.339Z,96597.22
2023-08-29T02:43:00.763Z,96605.16
2023-08-29T02:45:29.636Z,96597.00
2023-08-29T02:47:57.189Z,96589.97
2023-08-29T02:50:25.216Z,96588.16
2023-08-29T02:52:54.097Z,96584.47
2023-08-29T02:55:21.656Z,96589.97
2023-08-29T02:57:49.173Z,96582.94
2023-08-29T03:00:17.456Z,96582.13
2023-08-29T03:02:44.935Z,96577.66
2023-08-29T03:05:12.514Z,96574.19
2023-08-29T03:07:40.006Z,96569.28
2023-08-29T03:10:09.949Z,96576.88
2023-08-29T03:12:37.630Z,96571.84
2023-08-29T03:15:05.787Z,96573.25
2023-08-29T03:17:34.252Z,96568.47
2023-08-29T03:20:02.686Z,96569.84
2023-08-29T03:22:30.186Z,96570.81
2023-08-29T03:24:57.620Z,96561.13
2023-08-29T03:27:26.502Z,96564.84
2023-08-29T03:29:53.986Z,96560.41
2023-08-29T03:32:21.804Z,96549.53
2023-08-29T03:34:52.888Z,96551.16
2023-08-29T03:37:20.367Z,96550.25
2023-08-29T03:39:47.943Z,96545.69
2023-08-29T03:42:15.393Z,96544.75
2023-08-29T03:44:44.350Z,96546.47
2023-08-29T03:47:11.827Z,96545.06
2023-08-29T03:49:39.852Z,96541.66
2023-08-29T03:52:07.519Z,96540.03
2023-08-29T03:54:35.617Z,96537.22
2023-08-29T03:57:03.136Z,96538.44
2023-08-29T03:59:31.391Z,96533.09
2023-08-29T04:02:00.290Z,96530.00
2023-08-29T04:04:28.015Z,96520.03
2023-08-29T04:06:55.621Z,96524.16
2023-08-29T04:09:23.117Z,96525.66
2023-08-29T04:11:50.724Z,96524.28
2023-08-29T04:14:18.229Z,96515.97
2023-08-29T04:16:45.808Z,96529.06
2023-08-29T04:19:14.811Z,96524.84
2023-08-29T04:21:42.270Z,96511.16
2023-08-29T04:24:10.960Z,96510.47
2023-08-29T04:26:38.467Z,96514.34
2023-08-29T04:29:06.005Z,96518.75
2023-08-29T04:31:33.574Z,96509.41
2023-08-29T04:34:01.113Z,96505.78
2023-08-29T04:36:29.994Z,96509.53
2023-08-29T04:38:57.488Z,96510.06
2023-08-29T04:41:25.649Z,96500.47
2023-08-29T04:43:53.095Z,96498.00
2023-08-29T04:46:20.640Z,96504.03
2023-08-29T04:48:48.137Z,96507.50
2023-08-29T04:51:15.646Z,96508.56
2023-08-29T04:53:44.631Z,96506.03
2023-08-29T04:56:12.071Z,96501.94
2023-08-29T04:58:39.577Z,96495.16
2023-08-29T05:01:07.119Z,96503.94
2023-08-29T05:03:35.214Z,96503.59
2023-08-29T05:06:02.805Z,96502.78
2023-08-29T05:08:31.795Z,96506.78
2023-08-29T05:11:00.680Z,96490.00
2023-08-29T05:13:28.298Z,96490.94
2023-08-29T05:15:55.827Z,96490.72
2023-08-29T05:18:24.243Z,96494.81
2023-08-29T05:20:52.475Z,96500.75
2023-08-29T05:23:21.613Z,96500.66
2023-08-29T05:25:49.114Z,96488.97
2023-08-29T05:28:18.156Z,96485.91
2023-08-29T05:30:45.818Z,96488.16
2023-08-29T05:33:13.959Z,96479.03
2023-08-29T05:35:41.589Z,96483.56
2023-08-29T05:38:09.202Z,96485.78
2023-08-29T05:40:36.801Z,96483.34
2023-08-29T05:43:04.559Z,96476.47
2023-08-29T05:45:33.596Z,96476.78
2023-08-29T05:48:01.169Z,96471.22
2023-08-29T05:50:28.698Z,96478.28
2023-08-29T05:52:56.390Z,96475.72
2023-08-29T05:55:23.976Z,96476.56
2023-08-29T05:57:51.490Z,96475.03
2023-08-29T06:00:19.850Z,96469.78
2023-08-29T06:02:48.864Z,96471.88
2023-08-29T06:05:16.508Z,96472.13
2023-08-29T06:07:44.810Z,96479.84
2023-08-29T06:10:12.287Z,96484.50
2023-08-29T06:12:39.962Z,96474.75
2023-08-29T06:15:08.714Z,96471.16
2023-08-29T06:17:36.187Z,96469.44
2023-08-29T06:20:06.366Z,96477.59
2023-08-29T06:22:34.037Z,96476.53
2023-08-29T06:25:01.540Z,96476.88
2023-08-29T06:27:29.049Z,96470.63
2023-08-29T06:29:56.803Z,96473.66
2023-08-29T06:32:24.356Z,96474.66
2023-08-29T06:34:52.225Z,96470.81
2023-08-29T06:37:21.457Z,96473.50
2023-08-29T06:39:49.037Z,96476.69
2023-08-29T06:42:16.567Z,96470.63
2023-08-29T06:44:44.086Z,96471.66
2023-08-29T06:47:11.522Z,96472.22
2023-08-29T06:49:39.073Z,96472.72
2023-08-29T06:52:07.011Z,96469.53
2023-08-29T06:54:35.951Z,96465.91
2023-08-29T06:57:03.521Z,96465.47
2023-08-29T06:59:31.055Z,96459.03
2023-08-29T07:01:58.636Z,96461.25
2023-08-29T07:04:26.117Z,96455.88
2023-08-29T07:06:54.890Z,96463.81
2023-08-29T07:09:23.490Z,96452.69
2023-08-29T07:11:52.362Z,96459.75
2023-08-29T07:14:19.877Z,96449.69
2023-08-29T07:17:00.109Z,96448.84
2023-08-29T07:19:35.348Z,96446.28
2023-08-29T07:22:03.270Z,96448.28
2023-08-29T07:24:31.378Z,96447.47
2023-08-29T07:27:00.311Z,96450.06
2023-08-29T07:29:28.166Z,96451.34
2023-08-29T07:31:55.673Z,96449.63
2023-08-29T07:34:23.168Z,96452.09
2023-08-29T07:36:50.781Z,96450.31
2023-08-29T07:39:18.278Z,96450.03
2023-08-29T07:41:45.838Z,96464.78
2023-08-29T07:44:14.797Z,96448.66
2023-08-29T07:46:50.194Z,96448.56
2023-08-29T07:49:25.938Z,96439.72
2023-08-29T07:51:53.388Z,96441.78
2023-08-29T07:54:21.079Z,96447.66
2023-08-29T07:56:49.184Z,96443.75
2023-08-29T07:59:18.089Z,96446.59
2023-08-29T08:01:45.607Z,96448.25
2023-08-29T08:04:13.201Z,96441.06
2023-08-29T08:06:40.720Z,96446.19
2023-08-29T08:09:08.214Z,96455.25
2023-08-29T08:11:35.664Z,96452.16
2023-08-29T08:14:03.241Z,96447.22
2023-08-29T08:16:32.151Z,96457.66
2023-08-29T08:18:59.825Z,96456.13
2023-08-29T08:21:27.370Z,96464.75
2023-08-29T08:23:54.932Z,96465.09
2023-08-29T08:26:23.018Z,96463.59
2023-08-29T08:28:50.730Z,96466.16
2023-08-29T08:31:18.227Z,96471.38
2023-08-29T08:33:47.351Z,96471.63
2023-08-29T08:36:14.910Z,96473.75
2023-08-29T08:38:42.422Z,96481.59
2023-08-29T08:41:11.723Z,96479.00
2023-08-29T08:43:40.024Z,96483.56
2023-08-29T08:46:08.731Z,96473.53
2023-08-29T08:48:37.701Z,96471.53
2023-08-29T08:51:07.264Z,96480.88
2023-08-29T08:53:37.394Z,96478.19
2023-08-29T08:56:05.603Z,96484.19
2023-08-29T08:58:33.122Z,96495.84
2023-08-29T09:01:00.677Z,96491.38
2023-08-29T09:03:28.239Z,96494.66
2023-08-29T09:05:56.267Z,96486.72
2023-08-29T09:08:25.267Z,96489.41
2023-08-29T09:10:53.504Z,96487.66
2023-08-29T09:13:21.681Z,96491.03
2023-08-29T09:15:49.335Z,96486.63
2023-08-29T09:18:25.377Z,96506.03
2023-08-29T09:20:53.674Z,96498.19
2023-08-29T09:23:22.235Z,96502.38
2023-08-29T09:25:58.404Z,96508.09
2023-08-29T09:28:28.140Z,96505.06
2023-08-29T09:30:55.264Z,96508.81
2023-08-29T09:33:23.369Z,96512.78
2023-08-29T09:35:51.234Z,96511.22
2023-08-29T09:38:19.235Z,96505.34
2023-08-29T09:40:49.572Z,96509.66
2023-08-29T09:43:19.026Z,96505.78
2023-08-29T09:45:50.391Z,96516.69
2023-08-29T09:48:18.181Z,96505.13
2023-08-29T09:50:46.783Z,96502.06
2023-08-29T09:53:16.426Z,96492.69
2023-08-29T09:55:45.122Z,96496.91
2023-08-29T09:58:13.707Z,96501.09
2023-08-29T10:00:42.741Z,96502.72
2023-08-29T10:03:11.928Z,96502.88
2023-08-29T10:05:42.337Z,96500.78
2023-08-29T10:08:19.541Z,96502.19
2023-08-29T10:10:48.657Z,96502.06
2023-08-29T10:13:19.563Z,96496.56
2023-08-29T10:15:49.505Z,96496.50
2023-08-29T10:18:17.903Z,96488.06
2023-08-29T10:20:46.996Z,96491.38
2023-08-29T10:23:14.558Z,96491.63
2023-08-29T10:25:43.141Z,96488.84
2023-08-29T10:28:12.174Z,96487.16
2023-08-29T10:30:44.254Z,96499.59
2023-08-29T10:33:13.715Z,96501.78
2023-08-29T10:35:41.406Z,96499.44
2023-08-29T10:38:14.445Z,96494.72
2023-08-29T10:40:44.352Z,96496.50
2023-08-29T10:43:19.104Z,96499.00
2023-08-29T10:45:51.265Z,96503.66
2023-08-29T10:48:22.383Z,96503.09
2023-08-29T10:51:09.796Z,96505.41
2023-08-29T10:53:37.891Z,96501.94
2023-08-29T10:56:07.673Z,96504.63
2023-08-29T10:58:37.578Z,96503.19
2023-08-29T11:01:05.259Z,96496.22
2023-08-29T11:03:42.203Z,96492.19
2023-08-29T11:06:10.017Z,96485.22
2023-08-29T11:08:37.686Z,96489.94
2023-08-29T11:11:16.506Z,96486.91
2023-08-29T11:13:57.818Z,96494.50
2023-08-29T11:16:26.313Z,96489.84
2023-08-29T11:19:11.097Z,96489.06
2023-08-29T11:21:39.572Z,96488.28
2023-08-29T11:26:40.426Z,96480.81
2023-08-29T11:29:08.545Z,96484.50
2023-08-29T11:31:40.044Z,96482.28
2023-08-29T11:34:14.864Z,96485.44
2023-08-29T11:36:42.468Z,96484.50
2023-08-29T11:39:09.941Z,96493.38
2023-08-29T11:41:50.427Z,96489.19
2023-08-29T11:44:57.064Z,96504.00
2023-08-29T11:47:15.053Z,96496.56
2023-08-29T11:49:44.340Z,96494.56
2023-08-29T11:52:11.918Z,96490.22
2023-08-29T11:54:41.153Z,96488.84
2023-08-29T11:57:11.607Z,96497.13
2023-08-29T11:59:40.973Z,96498.81
2023-08-29T12:02:08.801Z,96500.31
2023-08-29T12:04:40.472Z,96488.84
2023-08-29T12:07:13.361Z,96488.03
2023-08-29T12:09:41.902Z,96495.94
2023-08-29T12:12:09.854Z,96491.88
2023-08-29T12:14:50.534Z,96488.50
2023-08-29T12:17:18.102Z,96501.31
2023-08-29T12:19:45.700Z,96493.28
2023-08-29T12:22:15.011Z,96496.78
2023-08-29T12:24:42.488Z,96500.03
2023-08-29T12:27:09.990Z,96505.75
2023-08-29T12:29:37.501Z,96509.66
2023-08-29T12:32:06.523Z,96502.97
2023-08-29T12:34:33.999Z,96502.38
2023-08-29T12:37:01.459Z,96509.38
2023-08-29T12:39:30.342Z,96498.94
2023-08-29T12:41:57.897Z,96501.63
2023-08-29T12:44:25.320Z,96496.03
2023-08-29T12:46:52.846Z,96510.44
2023-08-29T12:49:20.668Z,96508.16
2023-08-29T12:51:48.175Z,96500.84
2023-08-29T12:54:15.694Z,96498.13
2023-08-29T12:56:44.628Z,96500.97
2023-08-29T12:59:12.626Z,96501.13
2023-08-29T13:01:40.187Z,96486.63
2023-08-29T13:04:07.801Z,96488.22
2023-08-29T13:06:35.670Z,96484.22
2023-08-29T13:09:03.190Z,96486.25
2023-08-29T13:11:30.766Z,96490.66
2023-08-29T13:13:59.751Z,96492.19
2023-08-29T13:16:32.447Z,96488.72
2023-08-29T13:19:00.026Z,96484.03
2023-08-29T13:21:27.468Z,96479.72
2023-08-29T13:23:54.940Z,96487.28
2023-08-29T13:26:22.835Z,96483.69
2023-08-29T13:28:50.455Z,96491.88
2023-08-29T13:31:19.500Z,96482.97
2023-08-29T13:33:47.070Z,96482.53
2023-08-29T13:36:14.512Z,96479.97
2023-08-29T13:38:42.016Z,96472.47
2023-08-29T13:41:09.570Z,96478.69
2023-08-29T13:43:37.096Z,96470.97
2023-08-29T13:46:04.659Z,96475.50
2023-08-29T13:48:33.713Z,96476.78
2023-08-29T13:51:01.286Z,96478.06
2023-08-29T13:53:29.132Z,96471.88
2023-08-29T13:55:56.566Z,96469.78
2023-08-29T13:58:24.021Z,96457.97
2023-08-29T14:00:51.520Z,96478.06
2023-08-29T14:03:33.230Z,96480.22
2023-08-29T14:06:06.706Z,96482.41
2023-08-29T14:08:34.286Z,96471.53
2023-08-29T14:11:05.522Z,96472.72
2023-08-29T14:13:34.904Z,96472.13
2023-08-29T14:16:03.524Z,96476.44
2023-08-29T14:18:31.125Z,96474.09
2023-08-29T14:20:58.700Z,96473.66
2023-08-29T14:23:27.749Z,96476.81
2023-08-29T14:25:55.427Z,96487.19
2023-08-29T14:28:22.918Z,96477.53
2023-08-29T14:30:50.375Z,96484.16
2023-08-29T14:33:17.847Z,96480.06
2023-08-29T14:35:45.370Z,96480.56
2023-08-29T14:38:12.851Z,96491.88
2023-08-29T14:40:41.793Z,96489.19
2023-08-29T14:43:09.343Z,96484.88
2023-08-29T14:45:41.449Z,96482.06
2023-08-29T14:48:09.306Z,96482.44
2023-08-29T14:50:37.113Z,96483.09
2023-08-29T14:53:04.999Z,96482.91
2023-08-29T14:55:32.791Z,96480.66
2023-08-29T14:58:01.810Z,96477.63
2023-08-29T15:00:29.403Z,96487.31
2023-08-29T15:02:56.896Z,96485.09
2023-08-29T15:05:24.831Z,96479.97
2023-08-29T15:07:52.314Z,96478.69
2023-08-29T15:10:19.823Z,96481.72
2023-08-29T15:12:47.305Z,96478.31
2023-08-29T15:15:17.880Z,96484.97
2023-08-29T15:17:47.504Z,96483.44
2023-08-29T15:20:15.600Z,96488.38
2023-08-29T15:22:43.298Z,96475.03
2023-08-29T15:25:11.705Z,96476.69
2023-08-29T15:27:40.209Z,96482.97
2023-08-29T15:30:09.181Z,96473.06
2023-08-29T15:32:39.239Z,96469.91
2023-08-29T15:35:08.353Z,96466.88
2023-08-29T15:37:35.990Z,96458.09
2023-08-29T15:40:03.863Z,96455.88
2023-08-29T15:42:32.167Z,96453.19
2023-08-29T15:45:00.717Z,96461.72
2023-08-29T15:47:28.442Z,96459.63
2023-08-29T15:49:57.627Z,96450.75
2023-08-29T15:52:25.205Z,96443.72
2023-08-29T15:54:53.273Z,96451.00
2023-08-29T15:57:20.773Z,96447.38
2023-08-29T15:59:49.466Z,96437.56
2023-08-29T16:02:18.026Z,96439.41
2023-08-29T16:04:47.162Z,96432.53
2023-08-29T16:07:17.180Z,96443.47
2023-08-29T16:09:45.640Z,96441.97
2023-08-29T16:12:13.797Z,96440.09
2023-08-29T16:14:41.899Z,96428.78
2023-08-29T16:17:09.446Z,96427.47
2023-08-29T16:19:37.040Z,96433.16
2023-08-29T16:22:06.051Z,96427.81
2023-08-29T16:24:35.977Z,96425.22
2023-08-29T16:27:04.596Z,96433.31
2023-08-29T16:29:32.130Z,96422.81
2023-08-29T16:31:59.591Z,96423.84
2023-08-29T16:34:27.293Z,96430.06
2023-08-29T16:36:54.722Z,96416.50
2023-08-29T16:39:22.173Z,96413.72
2023-08-29T16:41:51.242Z,96417.34
2023-08-29T16:44:19.030Z,96412.19
2023-08-29T16:46:46.646Z,96410.31
2023-08-29T16:49:15.104Z,96406.44
2023-08-29T16:51:43.147Z,96391.94
2023-08-29T16:54:10.879Z,96395.78
2023-08-29T16:56:39.007Z,96387.75
2023-08-29T16:59:08.192Z,96384.25
2023-08-29T17:01:36.213Z,96375.59
2023-08-29T17:04:05.777Z,96377.00
2023-08-29T17:06:34.199Z,96379.44
2023-08-29T17:09:03.229Z,96370.88
2023-08-29T17:11:30.997Z,96367.25
2023-08-29T17:13:58.885Z,96368.19
2023-08-29T17:16:27.775Z,96357.75
2023-08-29T17:18:55.264Z,96354.00
2023-08-29T17:21:22.767Z,96351.31
2023-08-29T17:23:50.451Z,96344.09
2023-08-29T17:26:17.883Z,96343.81
2023-08-29T17:28:46.078Z,96337.44
2023-08-29T17:31:15.955Z,96340.84
2023-08-29T17:33:45.026Z,96338.00
2023-08-29T17:36:14.286Z,96332.00
2023-08-29T17:38:43.203Z,96332.75
2023-08-29T17:41:10.817Z,96324.44
2023-08-29T17:43:38.408Z,96326.84
2023-08-29T17:46:06.432Z,96323.09
2023-08-29T17:48:34.361Z,96319.50
2023-08-29T17:51:03.243Z,96317.59
2023-08-29T17:53:32.172Z,96314.91
2023-08-29T17:56:00.413Z,96320.56
2023-08-29T17:58:28.016Z,96310.50
2023-08-29T18:00:55.825Z,96307.56
2023-08-29T18:03:23.594Z,96301.44
2023-08-29T18:05:53.574Z,96291.88
2023-08-29T18:08:25.690Z,96290.00
2023-08-29T18:10:54.414Z,96288.00
2023-08-29T18:13:22.341Z,96281.59
2023-08-29T18:15:50.033Z,96282.38
2023-08-29T18:18:19.000Z,96272.38
2023-08-29T18:20:48.037Z,96285.44
2023-08-29T18:23:16.257Z,96270.84
2023-08-29T18:25:45.836Z,96277.75
2023-08-29T18:28:16.464Z,96266.78
2023-08-29T18:30:44.564Z,96269.25
2023-08-29T18:33:12.601Z,96267.38
2023-08-29T18:35:40.751Z,96267.81
2023-08-29T18:38:08.471Z,96267.41
2023-08-29T18:40:36.369Z,96266.28
2023-08-29T18:43:06.086Z,96251.81
2023-08-29T18:45:34.170Z,96246.25
2023-08-29T18:48:01.653Z,96244.41
2023-08-29T18:50:29.185Z,96232.81
2023-08-29T18:52:56.813Z,96226.38
2023-08-29T18:55:24.530Z,96221.91
2023-08-29T18:57:52.360Z,96225.44
2023-08-29T19:00:21.269Z,96228.69
2023-08-29T19:02:49.719Z,96206.75
2023-08-29T19:05:17.288Z,96214.47
2023-08-29T19:07:45.179Z,96212.13
2023-08-29T19:10:12.905Z,96199.78
2023-08-29T19:12:40.409Z,96197.56
2023-08-29T19:15:08.768Z,96191.28
2023-08-29T19:17:37.885Z,96195.25
2023-08-29T19:20:06.398Z,96191.84
2023-08-29T19:22:34.312Z,96197.81
2023-08-29T19:25:02.027Z,96193.38
2023-08-29T19:27:29.554Z,96181.25
2023-08-29T19:29:57.156Z,96185.91
2023-08-29T19:32:24.722Z,96192.22
2023-08-29T19:34:53.740Z,96181.81
2023-08-29T19:37:21.336Z,96176.00
2023-08-29T19:39:48.900Z,96177.63
2023-08-29T19:42:16.449Z,96172.72
2023-08-29T19:44:43.970Z,96152.56
2023-08-29T19:47:11.483Z,96167.25
2023-08-29T19:49:39.826Z,96159.31
2023-08-29T19:52:08.901Z,96152.28
2023-08-29T19:54:36.568Z,96148.88
2023-08-29T19:57:04.307Z,96142.94
2023-08-29T19:59:32.088Z,96146.31
2023-08-29T20:01:59.634Z,96134.00
2023-08-29T20:04:27.147Z,96132.22
2023-08-29T20:06:54.639Z,96125.28
2023-08-29T20:09:23.674Z,96130.72
2023-08-29T20:11:51.252Z,96123.25
2023-08-29T20:14:18.710Z,96123.84
2023-08-29T20:16:46.223Z,96122.56
2023-08-29T20:19:13.723Z,96112.09
2023-08-29T20:21:41.197Z,96120.00
2023-08-29T20:24:09.043Z,96104.00
2023-08-29T20:26:37.965Z,96101.81
2023-08-29T20:29:05.587Z,96094.59
2023-08-29T20:31:33.254Z,96090.19
2023-08-29T20:34:00.956Z,96091.56
2023-08-29T20:36:28.800Z,96091.91
2023-08-29T20:38:56.283Z,96094.69
2023-08-29T20:41:23.836Z,96088.63
2023-08-29T20:43:52.903Z,96093.50
2023-08-29T20:46:20.858Z,96079.53
2023-08-29T20:48:48.313Z,96084.31
2023-08-29T20:51:15.806Z,96089.31
2023-08-29T20:53:43.569Z,96075.09
2023-08-29T20:56:11.177Z,96083.28
2023-08-29T20:58:39.700Z,96083.38
2023-08-29T21:01:09.446Z,96084.06
2023-08-29T21:03:37.291Z,96079.59
2023-08-29T21:06:05.027Z,96069.16
2023-08-29T21:08:32.542Z,96073.94
2023-08-29T21:11:00.140Z,96073.34
2023-08-29T21:13:27.662Z,96069.88
2023-08-29T21:15:55.154Z,96071.84
2023-08-29T21:18:24.005Z,96067.53
2023-08-29T21:20:53.472Z,96070.91
2023-08-29T21:23:20.919Z,96065.31
2023-08-29T21:25:48.838Z,96058.44
2023-08-29T21:28:17.621Z,96063.44
2023-08-29T21:30:45.850Z,96066.13
2023-08-29T21:33:14.150Z,96063.56
2023-08-29T21:35:43.970Z,96060.66
2023-08-29T21:38:12.520Z,96060.78
2023-08-29T21:40:41.152Z,96064.28
2023-08-29T21:43:10.289Z,96060.44
2023-08-29T21:45:38.366Z,96067.41
2023-08-29T21:48:07.599Z,96062.88
2023-08-29T21:50:38.455Z,96063.19
2023-08-29T21:53:09.150Z,96056.31
2023-08-29T21:55:37.260Z,96050.50
2023-08-29T21:58:06.086Z,96053.66
2023-08-29T22:00:35.889Z,96048.53
2023-08-29T22:03:03.753Z,96054.13
2023-08-29T22:05:32.112Z,96041.38
2023-08-29T22:08:00.273Z,96044.16
2023-08-29T22:10:29.206Z,96045.00
2023-08-29T22:12:56.631Z,96048.47
2023-08-29T22:15:24.088Z,96043.00
2023-08-29T22:17:51.582Z,96045.59
2023-08-29T22:20:19.375Z,96055.97
2023-08-29T22:22:46.881Z,96046.53
2023-08-29T22:25:14.977Z,96044.56
2023-08-29T22:27:43.996Z,96039.16
2023-08-29T22:30:12.565Z,96040.69
2023-08-29T22:32:40.479Z,96022.28
2023-08-29T22:35:08.592Z,96026.22
2023-08-29T22:37:36.127Z,96023.06
2023-08-29T22:40:03.997Z,96027.06
2023-08-29T22:42:31.517Z,96017.41
2023-08-29T22:45:00.402Z,96013.19
2023-08-29T22:47:28.299Z,96008.31
2023-08-29T22:49:56.320Z,96004.13
2023-08-29T22:52:24.331Z,96009.56
2023-08-29T22:54:52.294Z,96002.84
2023-08-29T22:57:19.752Z,96012.03
2023-08-29T22:59:47.391Z,95994.81
2023-08-29T23:02:16.381Z,96001.66
2023-08-29T23:04:43.831Z,96003.78
2023-08-29T23:07:11.830Z,96006.78
2023-08-29T23:09:39.407Z,96000.75
2023-08-29T23:12:07.518Z,96008.88
2023-08-29T23:14:34.996Z,96006.09
2023-08-29T23:17:02.507Z,96005.16
2023-08-29T23:19:31.416Z,95989.94
2023-08-29T23:21:58.913Z,95998.72
2023-08-29T23:24:26.466Z,96006.41
2023-08-29T23:26:53.895Z,96000.34
2023-08-29T23:29:21.380Z,96007.34
2023-08-29T23:31:48.929Z,95989.88
2023-08-29T23:34:16.497Z,96000.50
2023-08-29T23:36:45.629Z,95995.41
2023-08-29T23:39:13.117Z,95999.97
2023-08-29T23:41:40.560Z,95991.16
2023-08-29T23:44:08.098Z,96005.50
2023-08-29T23:46:35.611Z,96006.44
2023-08-29T23:49:03.096Z,95993.03
2023-08-29T23:51:30.563Z,96002.47
2023-08-29T23:53:59.473Z,95998.72
2023-08-29T23:56:26.965Z,96010.50
2023-08-29T23:58:55.411Z,96002.81
